Time;durP1;ratioP1;P1;durP2;ratioP2;P2;SDS_P1;SDS_P2;PMS_P1;PMS_P2;Temp;Humidity;BMP_temperature;BMP_pressure;BME280_temperature;BME280_humidity;BME280_pressure;Samples;Min_cycle;Max_cycle;Signal;HPM_P1;HPM_P2
2021/08/25 00:00:46;;;;;;;14.30;12.10;;;;;;;8.90;95.47;99575.84;111559;1199;61024;-83
2021/08/25 00:03:13;;;;;;;19.50;14.40;;;;;;;8.84;95.43;99573.48;111553;1193;61137;-81
2021/08/25 00:05:41;;;;;;;13.30;11.90;;;;;;;8.79;95.54;99570.89;111499;1197;64590;-80
2021/08/25 00:08:08;;;;;;;11.30;10.00;;;;;;;8.76;95.68;99567.68;111538;1199;61064;-80
2021/08/25 00:10:34;;;;;;;10.00;9.10;;;;;;;8.72;95.68;99562.55;111487;1199;63953;-80
2021/08/25 00:13:06;;;;;;;8.80;7.90;;;;;;;8.66;95.44;99561.10;111566;1199;61079;-80
2021/08/25 00:15:38;;;;;;;10.40;8.10;;;;;;;8.61;95.54;99563.63;111510;1192;61076;-80
2021/08/25 00:18:06;;;;;;;8.60;7.70;;;;;;;8.64;95.76;99560.31;111590;1193;66646;-80
2021/08/25 00:20:33;;;;;;;10.10;9.10;;;;;;;8.71;96.10;99555.88;111552;1199;61046;-80
2021/08/25 00:22:59;;;;;;;16.30;11.70;;;;;;;8.82;96.58;99553.58;111470;1199;63939;-81
2021/08/25 00:25:29;;;;;;;14.90;11.00;;;;;;;8.89;96.53;99552.84;111485;1199;61685;-80
2021/08/25 00:27:56;;;;;;;16.70;14.10;;;;;;;8.94;96.36;99549.36;111515;1199;61016;-80
2021/08/25 00:30:22;;;;;;;16.80;12.60;;;;;;;8.94;96.34;99548.17;111544;1199;65801;-81
2021/08/25 00:32:49;;;;;;;12.50;11.10;;;;;;;8.88;96.18;99545.42;111494;1199;60973;-80
2021/08/25 00:35:16;;;;;;;12.20;11.00;;;;;;;8.80;96.18;99541.23;111574;1199;72617;-80
2021/08/25 00:37:43;;;;;;;12.50;11.20;;;;;;;8.75;96.32;99540.23;111527;1200;61088;-80
2021/08/25 00:40:11;;;;;;;13.10;10.50;;;;;;;8.74;96.22;99538.90;111559;1192;61114;-80
2021/08/25 00:42:38;;;;;;;13.00;10.90;;;;;;;8.72;96.23;99537.02;111487;1198;66070;-81
2021/08/25 00:45:05;;;;;;;10.90;9.90;;;;;;;8.69;96.28;99536.34;111556;1199;61126;-81
2021/08/25 00:47:36;;;;;;;9.40;8.40;;;;;;;8.67;96.18;99538.17;111524;1199;62600;-83
2021/08/25 00:50:04;;;;;;;11.70;10.30;;;;;;;8.68;96.31;99534.41;111524;1199;61081;-81
2021/08/25 00:52:31;;;;;;;13.00;11.00;;;;;;;8.71;96.42;99534.10;111638;1199;61079;-81
2021/08/25 00:55:02;;;;;;;12.30;10.50;;;;;;;8.66;96.28;99536.30;111547;1199;66031;-81
2021/08/25 00:57:28;;;;;;;12.70;11.00;;;;;;;8.58;96.32;99536.52;111520;1200;61181;-81
2021/08/25 00:59:55;;;;;;;13.70;11.10;;;;;;;8.49;96.17;99533.40;111395;1197;63981;-82
2021/08/25 01:02:38;;;;;;;13.80;11.80;;;;;;;8.47;96.28;99529.79;111493;1197;61046;-81
2021/08/25 01:05:06;;;;;;;13.90;12.10;;;;;;;8.45;96.58;99528.85;111401;1192;60992;-81
2021/08/25 01:07:34;;;;;;;14.20;10.40;;;;;;;8.43;96.65;99530.88;111452;1199;65645;-82
2021/08/25 01:10:27;;;;;;;12.80;10.70;;;;;;;8.35;96.50;99525.59;111564;1199;68852;-82
2021/08/25 01:13:04;;;;;;;12.00;10.70;;;;;;;8.25;96.35;99523.40;111542;1199;62627;-82
2021/08/25 01:15:33;;;;;;;11.90;10.80;;;;;;;8.19;96.63;99516.64;111507;1192;61079;-81
2021/08/25 01:18:04;;;;;;;11.70;10.50;;;;;;;8.19;96.84;99511.67;111580;1199;61188;-82
2021/08/25 01:20:33;;;;;;;11.20;10.00;;;;;;;8.23;96.96;99508.48;111600;1199;64615;-82
2021/08/25 01:23:00;;;;;;;10.50;9.50;;;;;;;8.27;97.32;99510.38;111528;1199;61318;-82
2021/08/25 01:25:29;;;;;;;13.10;11.40;;;;;;;8.30;97.50;99512.19;111573;1200;62603;-82
2021/08/25 01:28:00;;;;;;;18.30;14.70;;;;;;;8.31;97.53;99508.58;111611;1197;61070;-82
2021/08/25 01:30:30;;;;;;;16.40;14.60;;;;;;;8.35;97.56;99506.11;111540;1197;61017;-82
2021/08/25 01:32:59;;;;;;;16.70;14.60;;;;;;;8.44;97.94;99508.54;111562;1199;64691;-81
2021/08/25 01:35:42;;;;;;;14.50;12.30;;;;;;;8.52;98.02;99502.98;111584;1199;61095;-81
2021/08/25 01:38:08;;;;;;;13.60;12.30;;;;;;;8.61;98.25;99505.71;111537;1199;64004;-83
2021/08/25 01:40:36;;;;;;;24.50;19.10;;;;;;;8.63;97.80;99508.27;111513;1193;61074;-82
2021/08/25 01:43:03;;;;;;;23.80;18.20;;;;;;;8.57;97.45;99507.49;111561;1199;60992;-80
2021/08/25 01:45:30;;;;;;;28.80;20.10;;;;;;;8.51;97.44;99505.69;111544;1200;65842;-83
2021/08/25 01:47:57;;;;;;;21.50;17.50;;;;;;;8.53;98.05;99501.84;111573;1199;61205;-82
2021/08/25 01:50:24;;;;;;;19.40;14.80;;;;;;;8.62;98.19;99502.45;111523;1199;62600;-81
2021/08/25 01:52:50;;;;;;;17.30;15.30;;;;;;;8.68;98.26;99500.75;111559;1193;61142;-84
2021/08/25 01:55:17;;;;;;;17.80;15.00;;;;;;;8.74;98.32;99499.04;111620;1196;60927;-83
2021/08/25 01:57:44;;;;;;;17.30;15.40;;;;;;;8.79;98.17;99496.97;111542;1199;66030;-83
2021/08/25 02:00:39;;;;;;;15.10;11.70;;;;;;;8.85;98.08;99491.02;111589;1199;61055;-83
2021/08/25 02:03:05;;;;;;;12.80;10.50;;;;;;;8.92;98.01;99488.73;111536;1199;63950;-84
2021/08/25 02:05:32;;;;;;;14.30;12.10;;;;;;;8.96;97.75;99486.58;111549;1199;61073;-80
2021/08/25 02:07:59;;;;;;;14.60;10.80;;;;;;;9.00;97.50;99483.52;111540;1197;61101;-80
2021/08/25 02:10:25;;;;;;;19.30;12.40;;;;;;;8.99;97.42;99479.13;111535;1199;65954;-80
2021/08/25 02:12:52;;;;;;;16.90;13.30;;;;;;;8.94;97.16;99476.76;111515;1199;60992;-80
2021/08/25 02:15:19;;;;;;;23.10;15.50;;;;;;;8.87;97.14;99482.60;111484;1199;62332;-80
2021/08/25 02:17:45;;;;;;;21.00;14.80;;;;;;;8.84;97.51;99481.70;111557;1199;61074;-80
2021/08/25 02:20:12;;;;;;;18.10;15.00;;;;;;;8.82;97.59;99479.65;111547;1192;61039;-80
2021/08/25 02:22:39;;;;;;;16.20;13.90;;;;;;;8.89;98.04;99471.87;111514;1199;64548;-80
2021/08/25 02:25:06;;;;;;;18.10;15.00;;;;;;;8.99;98.12;99468.67;111587;1199;61021;-80
2021/08/25 02:27:32;;;;;;;21.10;13.70;;;;;;;9.05;97.94;99472.09;111521;1199;63954;-80
2021/08/25 02:29:59;;;;;;;18.70;14.70;;;;;;;9.11;98.02;99475.98;111506;1199;61078;-80
2021/08/25 02:32:26;;;;;;;21.80;15.60;;;;;;;9.17;98.01;99473.90;111538;1192;61059;-81
2021/08/25 02:34:53;;;;;;;20.00;15.20;;;;;;;9.19;97.92;99470.62;111532;1199;66197;-81
2021/08/25 02:37:21;;;;;;;23.00;13.70;;;;;;;9.25;98.15;99468.19;111562;1199;60996;-81
2021/08/25 02:39:47;;;;;;;16.70;14.80;;;;;;;9.28;98.15;99466.75;111528;1199;63953;-80
2021/08/25 02:42:14;;;;;;;17.40;14.60;;;;;;;9.29;98.05;99462.98;111529;1199;61012;-80
2021/08/25 02:44:41;;;;;;;21.50;14.40;;;;;;;9.32;98.29;99464.25;111546;1192;61049;-80
2021/08/25 02:47:08;;;;;;;18.20;14.40;;;;;;;9.36;98.31;99463.13;111523;1199;65981;-81
2021/08/25 02:49:34;;;;;;;18.40;14.00;;;;;;;9.41;98.35;99464.10;111540;1199;61082;-81
2021/08/25 02:52:01;;;;;;;16.90;13.50;;;;;;;9.46;98.54;99453.38;111544;1199;62933;-81
2021/08/25 02:54:28;;;;;;;15.80;13.20;;;;;;;9.51;98.60;99453.13;111449;1193;61156;-80
2021/08/25 02:56:54;;;;;;;15.10;13.50;;;;;;;9.56;98.68;99452.46;111571;1192;61088;-80
2021/08/25 02:59:21;;;;;;;22.40;13.90;;;;;;;9.60;98.72;99454.01;111523;1199;64307;-80
2021/08/25 03:01:48;;;;;;;16.50;13.40;;;;;;;9.61;98.75;99457.17;111511;1192;60986;-81
2021/08/25 03:04:15;;;;;;;15.00;13.40;;;;;;;9.65;98.81;99451.79;111561;1199;64017;-80
2021/08/25 03:06:42;;;;;;;18.00;14.50;;;;;;;9.68;98.86;99453.20;111516;1199;61043;-81
2021/08/25 03:09:08;;;;;;;16.90;13.20;;;;;;;9.71;98.72;99454.86;111553;1192;61046;-82
2021/08/25 03:11:35;;;;;;;16.50;14.50;;;;;;;9.74;98.88;99452.17;111569;1199;66002;-81
2021/08/25 03:14:03;;;;;;;16.10;13.10;;;;;;;9.77;99.01;99452.91;111507;1193;61061;-82
2021/08/25 03:16:29;;;;;;;14.60;12.20;;;;;;;9.80;98.94;99453.61;111599;1199;63935;-82
2021/08/25 03:18:56;;;;;;;15.80;12.30;;;;;;;9.84;99.07;99456.89;111530;1199;61092;-82
2021/08/25 03:21:23;;;;;;;15.30;13.10;;;;;;;9.86;98.97;99458.22;111522;1192;61617;-82
2021/08/25 03:23:50;;;;;;;15.10;12.40;;;;;;;9.94;99.31;99458.85;111541;1199;64756;-82
2021/08/25 03:26:17;;;;;;;14.00;11.20;;;;;;;10.02;99.28;99458.91;111543;1199;60993;-82
2021/08/25 03:28:43;;;;;;;15.50;12.40;;;;;;;10.03;99.09;99465.79;111516;1192;62420;-82
2021/08/25 03:31:11;;;;;;;16.00;13.00;;;;;;;10.04;99.04;99467.38;111540;1199;61085;-82
2021/08/25 03:33:38;;;;;;;14.00;12.10;;;;;;;10.04;98.94;99461.50;111541;1199;61037;-82
2021/08/25 03:36:04;;;;;;;13.40;12.00;;;;;;;10.03;98.96;99458.49;111536;1199;65802;-82
2021/08/25 03:38:31;;;;;;;15.30;12.40;;;;;;;10.01;98.88;99459.34;111539;1199;61050;-82
2021/08/25 03:40:58;;;;;;;14.10;11.70;;;;;;;9.97;98.81;99459.02;111530;1199;62586;-82
2021/08/25 03:43:25;;;;;;;16.10;12.20;;;;;;;9.96;98.83;99459.11;111436;1199;61598;-82
2021/08/25 03:45:51;;;;;;;16.80;12.60;;;;;;;9.99;99.09;99457.55;111545;1199;61085;-82
2021/08/25 03:48:18;;;;;;;18.00;13.80;;;;;;;10.03;99.35;99453.89;111575;1199;66018;-82
2021/08/25 03:50:44;;;;;;;17.20;13.10;;;;;;;10.08;99.39;99452.34;111557;1199;61043;-82
2021/08/25 03:53:11;;;;;;;15.40;12.20;;;;;;;10.13;99.43;99448.15;111525;1199;62582;-82
2021/08/25 03:55:38;;;;;;;21.10;14.90;;;;;;;10.19;99.52;99448.71;111555;1199;61039;-80
2021/08/25 03:58:05;;;;;;;24.10;16.10;;;;;;;10.21;99.39;99453.61;111546;1192;61031;-82
2021/08/25 04:00:32;;;;;;;21.70;14.70;;;;;;;10.20;99.40;99450.95;111569;1199;64602;-81
2021/08/25 04:02:59;;;;;;;21.00;15.70;;;;;;;10.22;99.47;99446.80;111552;1199;61040;-80
2021/08/25 04:05:25;;;;;;;19.10;15.20;;;;;;;10.24;99.42;99446.30;111533;1199;62441;-81
2021/08/25 04:07:52;;;;;;;17.70;14.30;;;;;;;10.29;99.79;99447.29;111482;1193;61108;-81
2021/08/25 04:10:18;;;;;;;25.60;16.00;;;;;;;10.35;99.95;99448.16;111564;1199;61094;-81
2021/08/25 04:12:45;;;;;;;17.30;14.70;;;;;;;10.42;99.97;99445.84;111448;1193;65931;-81
2021/08/25 04:15:12;;;;;;;19.30;14.30;;;;;;;10.48;99.97;99445.65;111552;1199;61064;-81
2021/08/25 04:17:38;;;;;;;18.60;13.80;;;;;;;10.56;100.00;99445.30;111497;1199;63614;-80
2021/08/25 04:20:06;;;;;;;16.90;14.10;;;;;;;10.64;99.99;99444.52;111580;1199;61104;-81
2021/08/25 04:22:32;;;;;;;20.60;14.20;;;;;;;10.65;99.95;99442.84;111569;1192;61040;-81
2021/08/25 04:24:59;;;;;;;16.10;13.70;;;;;;;10.68;99.98;99439.61;111610;1199;64596;-82
2021/08/25 04:27:25;;;;;;;16.20;13.70;;;;;;;10.77;100.00;99432.73;111463;1199;61193;-81
2021/08/25 04:29:52;;;;;;;17.80;13.40;;;;;;;10.82;99.99;99432.02;111492;1199;63923;-81
2021/08/25 04:32:19;;;;;;;14.80;13.20;;;;;;;10.88;99.89;99437.17;111534;1199;61085;-81
2021/08/25 04:34:45;;;;;;;14.20;12.70;;;;;;;10.92;99.87;99435.70;111497;1192;61084;-81
2021/08/25 04:37:12;;;;;;;13.30;12.10;;;;;;;10.95;99.93;99430.15;111574;1199;64721;-82
2021/08/25 04:39:38;;;;;;;15.00;12.50;;;;;;;10.97;99.88;99428.95;111531;1193;61764;-82
2021/08/25 04:42:05;;;;;;;15.20;13.50;;;;;;;11.01;99.82;99426.10;111492;1199;63699;-81
2021/08/25 04:44:32;;;;;;;16.00;13.50;;;;;;;11.04;99.88;99425.21;111527;1199;60954;-82
2021/08/25 04:46:58;;;;;;;14.90;13.20;;;;;;;11.09;99.77;99424.89;111591;1193;60986;-83
2021/08/25 04:49:25;;;;;;;15.50;12.90;;;;;;;11.13;99.59;99424.64;111530;1199;64314;-82
2021/08/25 04:51:52;;;;;;;14.50;13.00;;;;;;;11.15;99.52;99420.21;111568;1199;61102;-81
2021/08/25 04:54:18;;;;;;;14.40;13.00;;;;;;;11.15;99.44;99422.67;111505;1199;64961;-84
2021/08/25 04:56:45;;;;;;;14.90;13.30;;;;;;;11.17;99.43;99422.04;111606;1192;60996;-84
2021/08/25 04:59:14;;;;;;;14.70;12.60;;;;;;;11.26;99.58;99422.23;111549;1193;60989;-80
2021/08/25 05:01:40;;;;;;;21.00;12.70;;;;;;;11.36;99.56;99422.10;111578;1199;65904;-84
2021/08/25 05:04:07;;;;;;;14.40;12.30;;;;;;;11.46;99.33;99423.98;111603;1199;61098;-82
2021/08/25 05:06:34;;;;;;;13.40;12.00;;;;;;;11.55;99.21;99421.63;111597;1199;62620;-83
2021/08/25 05:09:00;;;;;;;15.60;12.30;;;;;;;11.65;99.14;99418.98;111591;1199;61171;-83
2021/08/25 05:11:27;;;;;;;15.00;12.70;;;;;;;11.73;98.89;99414.02;111517;1199;60957;-83
2021/08/25 05:13:53;;;;;;;14.50;12.70;;;;;;;11.81;98.86;99411.36;111539;1199;65963;-84
2021/08/25 05:16:21;;;;;;;17.20;13.50;;;;;;;11.89;98.76;99408.61;111565;1199;61067;-81
2021/08/25 05:18:47;;;;;;;18.70;15.00;;;;;;;11.95;98.61;99405.17;111532;1199;63998;-81
2021/08/25 05:21:14;;;;;;;14.80;13.20;;;;;;;12.01;98.41;99401.86;111556;1199;61663;-81
2021/08/25 05:23:41;;;;;;;17.10;12.60;;;;;;;12.07;98.21;99400.46;111536;1199;61072;-83
2021/08/25 05:26:08;;;;;;;14.50;12.50;;;;;;;12.13;98.22;99399.14;111602;1193;66711;-81
2021/08/25 05:28:35;;;;;;;13.70;10.90;;;;;;;12.20;98.08;99397.08;111523;1192;61092;-82
2021/08/25 05:31:02;;;;;;;14.90;11.80;;;;;;;12.35;98.14;99393.20;111404;1199;63778;-82
2021/08/25 05:33:29;;;;;;;14.00;11.70;;;;;;;12.50;97.86;99395.02;111538;1199;61110;-81
2021/08/25 05:35:58;;;;;;;12.90;11.20;;;;;;;12.59;97.38;99397.48;111484;1199;61046;-81
2021/08/25 05:38:26;;;;;;;14.90;12.00;;;;;;;12.62;96.97;99396.17;111541;1199;65680;-82
2021/08/25 05:40:52;;;;;;;18.20;11.80;;;;;;;12.70;96.83;99393.85;111540;1199;61047;-82
2021/08/25 05:43:19;;;;;;;18.40;11.90;;;;;;;12.80;96.63;99390.84;111502;1199;63986;-81
2021/08/25 05:45:46;;;;;;;15.80;11.90;;;;;;;12.92;96.46;99388.52;111543;1192;61035;-81
2021/08/25 05:48:12;;;;;;;14.20;11.90;;;;;;;13.05;96.17;99388.74;111530;1199;61027;-81
2021/08/25 05:50:39;;;;;;;14.60;12.40;;;;;;;13.14;95.61;99384.34;111537;1199;64637;-81
2021/08/25 05:53:07;;;;;;;14.50;12.60;;;;;;;13.20;95.26;99384.96;111453;1193;60990;-81
2021/08/25 05:55:34;;;;;;;17.20;13.00;;;;;;;13.28;95.13;99389.98;111507;1199;63820;-82
2021/08/25 05:58:03;;;;;;;13.10;11.70;;;;;;;13.37;94.89;99383.42;111485;1192;61084;-81
2021/08/25 06:00:30;;;;;;;14.10;12.40;;;;;;;13.45;94.72;99383.38;111513;1192;61124;-83
2021/08/25 06:02:57;;;;;;;13.90;10.90;;;;;;;13.57;94.69;99387.85;111568;1199;65958;-81
2021/08/25 06:05:24;;;;;;;13.10;11.70;;;;;;;13.69;94.52;99397.52;111559;1199;61016;-81
2021/08/25 06:07:51;;;;;;;14.30;11.90;;;;;;;13.77;93.88;99397.45;111418;1192;62401;-82
2021/08/25 06:10:18;;;;;;;15.40;11.50;;;;;;;13.87;93.51;99394.62;111521;1199;61070;-82
2021/08/25 06:12:45;;;;;;;15.00;12.20;;;;;;;13.96;93.17;99395.73;111514;1193;61014;-82
2021/08/25 06:15:12;;;;;;;16.90;12.30;;;;;;;14.02;92.89;99397.24;111554;1199;64607;-83
2021/08/25 06:17:38;;;;;;;17.60;11.70;;;;;;;14.10;92.96;99393.57;111576;1192;61085;-83
2021/08/25 06:20:06;;;;;;;14.60;11.80;;;;;;;14.23;93.03;99393.67;111454;1199;65346;-83
2021/08/25 06:22:32;;;;;;;18.10;11.80;;;;;;;14.32;92.14;99402.86;111532;1199;61098;-83
2021/08/25 06:25:00;;;;;;;15.80;11.50;;;;;;;14.32;91.79;99406.79;111551;1192;61076;-83
2021/08/25 06:27:27;;;;;;;14.20;11.10;;;;;;;14.40;91.85;99405.85;111548;1199;64804;-83
2021/08/25 06:29:54;;;;;;;14.40;11.00;;;;;;;14.49;91.34;99406.18;111557;1199;61068;-82
2021/08/25 06:32:21;;;;;;;15.90;11.40;;;;;;;14.58;91.02;99403.80;111535;1192;63942;-82
2021/08/25 06:34:48;;;;;;;17.30;11.30;;;;;;;14.64;90.33;99403.69;111508;1199;61107;-81
2021/08/25 06:37:14;;;;;;;14.20;11.40;;;;;;;14.65;89.94;99406.64;111541;1192;60995;-81
2021/08/25 06:39:42;;;;;;;13.40;11.10;;;;;;;14.61;89.52;99409.11;111579;1199;64553;-82
2021/08/25 06:42:08;;;;;;;16.70;10.70;;;;;;;14.63;89.85;99406.10;111576;1199;61043;-82
2021/08/25 06:44:35;;;;;;;13.00;10.70;;;;;;;14.73;89.97;99402.44;111519;1199;63956;-82
2021/08/25 06:47:02;;;;;;;13.60;11.10;;;;;;;14.91;90.20;99402.65;111539;1199;61025;-83
2021/08/25 06:49:28;;;;;;;14.70;11.50;;;;;;;15.04;89.60;99404.79;111522;1192;60983;-82
2021/08/25 06:51:55;;;;;;;15.40;11.80;;;;;;;15.04;88.71;99408.40;111551;1199;65700;-84
2021/08/25 06:54:22;;;;;;;17.50;12.20;;;;;;;14.92;88.38;99408.11;111496;1193;61055;-82
2021/08/25 06:56:48;;;;;;;17.80;12.20;;;;;;;14.92;88.80;99403.64;111515;1199;63709;-83
2021/08/25 06:59:15;;;;;;;15.60;12.20;;;;;;;15.10;89.09;99405.23;111483;1199;61085;-82
2021/08/25 07:01:42;;;;;;;14.20;11.90;;;;;;;15.28;88.65;99400.77;111498;1193;61085;-83
2021/08/25 07:04:09;;;;;;;15.00;12.00;;;;;;;15.42;87.83;99403.73;111523;1199;65995;-83
2021/08/25 07:06:35;;;;;;;15.80;12.80;;;;;;;15.55;87.29;99403.96;111607;1199;61087;-82
2021/08/25 07:09:02;;;;;;;16.80;12.80;;;;;;;15.68;86.56;99397.55;111544;1199;63974;-82
2021/08/25 07:11:29;;;;;;;15.20;12.90;;;;;;;15.77;85.44;99393.58;111527;1192;60999;-82
2021/08/25 07:13:56;;;;;;;17.20;13.10;;;;;;;15.86;85.52;99391.58;111514;1191;60992;-82
2021/08/25 07:16:22;;;;;;;18.30;14.10;;;;;;;16.06;85.30;99385.70;111520;1199;64719;-82
2021/08/25 07:18:49;;;;;;;13.70;12.10;;;;;;;16.24;84.88;99385.39;111511;1199;60986;-82
2021/08/25 07:21:15;;;;;;;12.90;10.10;;;;;;;16.34;83.23;99385.64;111524;1199;62626;-82
2021/08/25 07:23:44;;;;;;;15.90;10.20;;;;;;;16.27;82.01;99382.45;111554;1199;61018;-82
2021/08/25 07:26:10;;;;;;;15.80;11.30;;;;;;;16.28;82.21;99382.38;111591;1192;61055;-82
2021/08/25 07:28:37;;;;;;;14.40;12.70;;;;;;;16.35;82.42;99378.94;111531;1199;65991;-82
2021/08/25 07:31:03;;;;;;;15.00;12.70;;;;;;;16.43;82.47;99378.07;111516;1199;60977;-82
2021/08/25 07:33:30;;;;;;;14.60;11.60;;;;;;;16.49;82.25;99377.93;111551;1199;63763;-82
2021/08/25 07:35:57;;;;;;;14.40;11.80;;;;;;;16.56;82.03;99375.16;111551;1193;61073;-82
2021/08/25 07:38:23;;;;;;;12.40;9.90;;;;;;;16.68;81.79;99373.23;111550;1192;61105;-82
2021/08/25 07:40:50;;;;;;;14.40;10.50;;;;;;;16.76;80.98;99371.89;111521;1199;65984;-82
2021/08/25 07:43:16;;;;;;;14.30;9.90;;;;;;;16.77;81.14;99374.09;111561;1199;61064;-82
2021/08/25 07:45:43;;;;;;;17.10;11.30;;;;;;;16.78;80.99;99372.10;111547;1199;63963;-84
2021/08/25 07:48:10;;;;;;;13.30;11.30;;;;;;;16.75;80.84;99369.23;111535;1192;60970;-82
2021/08/25 07:50:37;;;;;;;15.00;10.60;;;;;;;16.63;80.32;99368.48;111535;1199;61768;-82
2021/08/25 07:53:03;;;;;;;14.80;10.20;;;;;;;16.51;80.20;99364.89;111490;1193;64449;-82
2021/08/25 07:55:30;;;;;;;12.70;10.70;;;;;;;16.52;80.28;99360.77;111537;1199;61066;-82
2021/08/25 07:57:57;;;;;;;15.90;13.50;;;;;;;16.60;80.39;99359.80;111542;1199;63958;-82
2021/08/25 08:00:23;;;;;;;19.00;16.40;;;;;;;16.66;80.42;99357.27;111541;1193;61578;-82
2021/08/25 08:02:50;;;;;;;21.30;19.10;;;;;;;16.75;80.89;99356.88;111577;1193;61060;-82
2021/08/25 08:05:18;;;;;;;19.90;18.00;;;;;;;16.81;80.62;99354.89;111567;1199;64318;-85
2021/08/25 08:07:45;;;;;;;17.50;15.70;;;;;;;16.92;80.62;99355.23;111644;1199;61056;-82
2021/08/25 08:10:13;;;;;;;17.20;15.20;;;;;;;17.02;80.48;99352.89;111521;1199;62858;-85
2021/08/25 08:12:39;;;;;;;18.80;16.10;;;;;;;17.07;80.18;99348.86;111589;1192;61025;-85
2021/08/25 08:15:11;;;;;;;19.50;16.80;;;;;;;17.17;80.12;99348.34;111619;1192;61015;-85
2021/08/25 08:17:42;;;;;;;14.90;13.20;;;;;;;17.34;79.77;99343.96;111530;1199;65954;-84
2021/08/25 08:20:10;;;;;;;16.80;14.00;;;;;;;17.49;79.59;99339.85;111550;1199;61077;-84
2021/08/25 08:22:36;;;;;;;17.30;14.60;;;;;;;17.65;78.57;99337.38;111548;1199;62605;-83
2021/08/25 08:25:04;;;;;;;16.20;11.50;;;;;;;17.72;77.94;99336.36;111545;1193;61071;-84
2021/08/25 08:27:31;;;;;;;13.70;10.60;;;;;;;17.83;78.01;99334.16;111523;1195;61040;-83
2021/08/25 08:30:00;;;;;;;15.70;12.50;;;;;;;18.02;77.74;99330.24;111596;1199;64697;-84
2021/08/25 08:32:26;;;;;;;14.80;11.80;;;;;;;18.17;77.25;99327.27;111569;1191;61069;-83
2021/08/25 08:34:53;;;;;;;12.80;11.00;;;;;;;18.28;75.61;99321.41;111518;1199;62635;-84
2021/08/25 08:37:20;;;;;;;15.70;11.10;;;;;;;18.40;75.56;99317.39;111516;1199;60960;-83
2021/08/25 08:39:46;;;;;;;15.00;12.00;;;;;;;18.53;74.27;99316.83;111569;1199;61066;-84
2021/08/25 08:42:33;;;;;;;13.90;11.20;;;;;;;18.64;74.28;99315.05;111491;1199;64642;-84
2021/08/25 08:45:02;;;;;;;11.40;10.10;;;;;;;18.94;74.60;99310.58;111601;1199;68828;-84
2021/08/25 08:47:30;;;;;;;13.00;11.60;;;;;;;19.25;73.61;99306.91;111574;1199;63997;-84
2021/08/25 08:50:00;;;;;;;12.70;10.70;;;;;;;19.47;72.94;99303.26;111571;1192;61207;-83
2021/08/25 08:52:27;;;;;;;15.10;11.90;;;;;;;19.59;71.87;99297.55;111561;1199;61111;-83
2021/08/25 08:54:57;;;;;;;14.40;12.00;;;;;;;19.53;71.24;99292.27;111589;1199;64655;-83
2021/08/25 08:57:24;;;;;;;;;;;;;;;19.35;70.81;99291.89;111582;1199;60991;-83
2021/08/25 08:59:51;;;;;;;14.90;12.70;;;;;;;18.97;70.20;99291.60;111516;1199;62572;-83
2021/08/25 09:02:41;;;;;;;16.80;12.30;;;;;;;18.64;69.71;99291.34;111510;1199;60967;-84
2021/08/25 09:05:31;;;;;;;15.10;11.60;;;;;;;18.27;68.65;99288.58;111567;1192;61044;-82
2021/08/25 09:08:01;;;;;;;15.80;11.90;;;;;;;17.97;69.14;99289.70;111564;1193;65970;-83
2021/08/25 09:10:29;;;;;;;13.90;12.40;;;;;;;17.85;69.26;99283.14;111604;1199;61081;-83
2021/08/25 09:13:09;;;;;;;12.00;10.30;;;;;;;17.97;68.53;99280.75;111580;1199;62738;-83
2021/08/25 09:15:40;;;;;;;12.50;11.20;;;;;;;18.22;67.43;99273.93;111588;1199;61070;-83
2021/08/25 09:18:10;;;;;;;14.80;10.70;;;;;;;18.36;67.22;99271.99;111545;1193;61108;-83
2021/08/25 09:20:42;;;;;;;11.80;10.20;;;;;;;18.50;67.13;99267.64;111576;1199;65950;-83
2021/08/25 09:23:14;;;;;;;12.50;10.40;;;;;;;18.64;66.09;99262.95;111555;1199;61198;-83
2021/08/25 09:25:42;;;;;;;14.20;10.80;;;;;;;18.68;63.40;99260.51;111495;1199;63861;-83
2021/08/25 09:28:12;;;;;;;11.30;10.00;;;;;;;18.58;62.14;99256.09;111586;1192;61066;-83
2021/08/25 09:30:57;;;;;;;12.70;10.40;;;;;;;18.52;61.35;99250.88;111561;1193;60986;-83
2021/08/25 09:33:26;;;;;;;12.70;10.60;;;;;;;18.65;63.53;99250.42;111544;1199;65772;-83
2021/08/25 09:35:56;;;;;;;12.30;11.00;;;;;;;18.92;63.33;99246.34;111595;1193;61243;-83
2021/08/25 09:38:24;;;;;;;12.40;11.10;;;;;;;19.27;61.86;99243.33;111569;1199;63949;-82
2021/08/25 09:40:57;;;;;;;19.50;13.00;;;;;;;19.32;60.96;99242.39;111551;1199;61091;-82
2021/08/25 09:43:38;;;;;;;16.70;12.60;;;;;;;19.26;59.92;99234.69;111564;1193;60958;-83
2021/08/25 09:46:25;;;;;;;13.10;11.70;;;;;;;19.15;60.46;99232.09;111600;1199;66005;-83
2021/08/25 09:48:57;;;;;;;13.70;10.80;;;;;;;19.02;60.41;99235.11;111565;1199;61066;-82
2021/08/25 09:51:43;;;;;;;11.10;10.00;;;;;;;18.90;60.25;99237.34;111582;1199;63861;-85
2021/08/25 09:54:16;;;;;;;13.70;9.70;;;;;;;18.91;60.34;99230.26;111561;1199;61105;-82
2021/08/25 09:56:43;;;;;;;14.40;11.30;;;;;;;18.86;59.68;99232.49;111542;1193;61060;-83
2021/08/25 09:59:13;;;;;;;12.40;10.40;;;;;;;18.85;59.22;99230.25;111508;1199;65934;-82
2021/08/25 10:01:41;;;;;;;14.30;10.80;;;;;;;18.86;59.11;99224.02;111600;1199;61066;-83
2021/08/25 10:04:14;;;;;;;11.00;9.50;;;;;;;19.08;59.28;99219.89;111587;1193;63898;-83
2021/08/25 10:06:44;;;;;;;14.40;10.10;;;;;;;19.24;57.77;99219.98;111528;1199;61052;-83
2021/08/25 10:09:12;;;;;;;13.90;10.30;;;;;;;19.34;58.60;99215.34;111588;1192;61027;-84
2021/08/25 10:11:42;;;;;;;13.50;10.60;;;;;;;19.29;57.93;99214.58;111575;1199;65977;-83
2021/08/25 10:14:18;;;;;;;10.00;9.00;;;;;;;19.31;58.91;99212.41;111602;1193;68797;-83
2021/08/25 10:16:47;;;;;;;11.50;10.30;;;;;;;19.32;57.75;99204.95;111522;1199;62776;-85
2021/08/25 10:19:35;;;;;;;12.60;9.90;;;;;;;19.29;57.94;99206.88;111569;1193;61767;-84
2021/08/25 10:22:15;;;;;;;13.50;11.00;;;;;;;19.29;57.79;99205.19;111605;1192;60970;-84
2021/08/25 10:24:54;;;;;;;12.10;10.80;;;;;;;19.35;56.88;99203.24;111551;1199;64610;-86
2021/08/25 10:27:22;;;;;;;14.60;11.80;;;;;;;19.36;56.33;99200.83;111611;1199;61030;-85
2021/08/25 10:30:01;;;;;;;13.00;11.60;;;;;;;19.34;55.79;99197.54;111627;1199;63965;-85
2021/08/25 10:32:35;;;;;;;11.40;10.20;;;;;;;19.29;55.95;99191.88;111593;1199;60962;-84
2021/08/25 10:35:11;;;;;;;12.50;10.20;;;;;;;19.37;56.12;99188.77;111704;1193;61059;-85
2021/08/25 10:37:40;;;;;;;12.40;10.70;;;;;;;19.35;56.55;99186.83;111509;1199;65834;-84
2021/08/25 10:40:08;;;;;;;10.20;8.70;;;;;;;19.26;56.02;99191.34;111533;1199;61058;-84
2021/08/25 10:42:48;;;;;;;13.00;9.60;;;;;;;19.09;55.65;99188.16;111581;1199;63942;-84
2021/08/25 10:45:37;;;;;;;10.90;8.90;;;;;;;18.93;55.39;99183.64;111557;1193;61469;-84
2021/08/25 10:48:08;;;;;;;12.30;9.80;;;;;;;18.85;55.80;99182.55;111494;1193;61059;-84
2021/08/25 10:50:55;;;;;;;13.30;9.90;;;;;;;19.07;56.85;99175.52;111563;1199;65799;-84
2021/08/25 10:53:28;;;;;;;13.00;10.10;;;;;;;19.52;57.69;99167.09;111593;1199;60999;-84
2021/08/25 10:56:15;;;;;;;12.90;10.00;;;;;;;19.94;58.59;99160.79;111581;1199;62818;-84
2021/08/25 10:58:42;;;;;;;12.40;10.40;;;;;;;20.34;58.11;99152.58;111513;1192;61086;-84
2021/08/25 11:01:29;;;;;;;12.10;10.10;;;;;;;20.37;57.59;99149.62;111568;1192;61069;-84
2021/08/25 11:04:01;;;;;;;13.80;10.50;;;;;;;20.27;57.33;99144.39;111625;1199;75876;-84
2021/08/25 11:06:34;;;;;;;13.80;9.90;;;;;;;20.19;57.52;99145.96;111577;1199;61095;-84
2021/08/25 11:09:17;;;;;;;13.70;9.30;;;;;;;20.06;55.84;99145.38;111565;1199;64935;-84
2021/08/25 11:11:56;;;;;;;11.70;9.80;;;;;;;19.69;53.54;99147.27;111521;1199;61021;-83
2021/08/25 11:14:45;;;;;;;13.00;9.60;;;;;;;19.39;53.63;99142.08;111653;1194;61076;-85
2021/08/25 11:17:24;;;;;;;11.40;9.50;;;;;;;19.19;54.61;99145.88;111677;1199;65949;-84
2021/08/25 11:20:01;;;;;;;10.10;8.60;;;;;;;19.10;55.22;99147.73;111468;1199;61025;-84